Time;durP1;ratioP1;P1;durP2;ratioP2;P2;SDS_P1;SDS_P2;PMS_P1;PMS_P2;Temp;Humidity;BMP_temperature;BMP_pressure;BME280_temperature;BME280_humidity;BME280_pressure;Samples;Min_cycle;Max_cycle;Signal;HPM_P1;HPM_P2
2022/02/16 00:00:10;;;;;;;18.37;10.28;;;;;;;-0.86;96.85;142066.27;1700619;84;21020;-59
2022/02/16 00:02:40;;;;;;;28.95;10.58;;;;;;;-0.86;96.99;142066.27;1700650;84;21013;-58
2022/02/16 00:05:11;;;;;;;14.28;8.90;;;;;;;-0.89;97.22;142060.06;1700366;84;21036;-58
2022/02/16 00:07:40;;;;;;;18.25;9.58;;;;;;;-0.88;97.35;142061.28;1700863;83;21011;-60
2022/02/16 00:10:13;;;;;;;20.30;10.50;;;;;;;-0.90;97.49;142056.31;1700576;83;21059;-59
2022/02/16 00:12:41;;;;;;;18.98;10.13;;;;;;;-0.92;97.60;142052.56;1700541;84;21005;-57
2022/02/16 00:15:10;;;;;;;19.80;10.75;;;;;;;-0.95;97.68;142043.89;1700582;84;21043;-60
2022/02/16 00:17:37;;;;;;;18.70;10.30;;;;;;;-0.97;97.81;142038.92;1700644;84;20981;-58
2022/02/16 00:20:05;;;;;;;17.37;9.88;;;;;;;-0.98;97.91;142036.45;1700319;83;21582;-59
2022/02/16 00:22:34;;;;;;;19.00;10.30;;;;;;;-1.00;98.08;142031.47;1700608;84;21017;-59
2022/02/16 00:25:02;;;;;;;17.05;9.53;;;;;;;-1.02;98.47;142027.73;1700331;84;21040;-59
2022/02/16 00:27:29;;;;;;;23.38;10.28;;;;;;;-1.01;98.75;142029.02;1700663;84;21506;-59
2022/02/16 00:29:57;;;;;;;22.98;9.90;;;;;;;-1.02;98.80;142026.50;1700441;84;21598;-59
2022/02/16 00:32:23;;;;;;;17.67;10.13;;;;;;;-1.02;98.84;142026.50;1700285;83;21008;-58
2022/02/16 00:34:50;;;;;;;22.15;10.50;;;;;;;-1.04;98.95;142021.53;1700458;84;21040;-58
2022/02/16 00:37:17;;;;;;;25.52;11.43;;;;;;;-1.08;99.21;142011.63;1700379;84;21068;-59
2022/02/16 00:39:44;;;;;;;18.52;9.10;;;;;;;-1.09;99.28;142010.39;1700640;84;21513;-60
2022/02/16 00:42:11;;;;;;;19.62;11.35;;;;;;;-1.11;99.46;142006.64;1700575;84;21043;-59
2022/02/16 00:44:38;;;;;;;23.18;11.08;;;;;;;-1.09;99.64;142010.39;1700362;84;21048;-60
2022/02/16 00:47:06;;;;;;;20.52;10.80;;;;;;;-1.08;99.63;142012.84;1700765;83;21554;-59
2022/02/16 00:49:34;;;;;;;26.40;11.38;;;;;;;-1.08;99.67;142011.63;1700487;84;21044;-60
2022/02/16 00:52:03;;;;;;;22.60;11.48;;;;;;;-1.10;99.77;142007.87;1700520;83;21623;-57
2022/02/16 00:54:31;;;;;;;22.15;10.70;;;;;;;-1.08;99.84;142011.63;1700584;84;21028;-61
2022/02/16 00:57:01;;;;;;;25.72;11.33;;;;;;;-1.08;99.90;142011.63;1700602;83;21039;-60
2022/02/16 00:59:28;;;;;;;22.45;11.75;;;;;;;-1.08;99.88;142011.63;1700368;84;21044;-59
2022/02/16 01:01:57;;;;;;;22.73;11.97;;;;;;;-1.10;99.90;142009.11;1700591;84;21020;-60
2022/02/16 01:04:24;;;;;;;21.65;10.93;;;;;;;-1.11;99.99;142006.64;1700593;84;21056;-58
2022/02/16 01:06:55;;;;;;;23.15;11.38;;;;;;;-1.10;100.00;142007.87;1700341;84;21036;-61
2022/02/16 01:09:23;;;;;;;24.27;11.65;;;;;;;-1.13;100.00;142001.67;1700352;84;21040;-60
2022/02/16 01:11:52;;;;;;;21.07;12.33;;;;;;;-1.14;100.00;141999.20;1700754;84;21052;-60
2022/02/16 01:14:19;;;;;;;18.23;10.95;;;;;;;-1.16;100.00;141994.22;1700591;84;21104;-60
2022/02/16 01:16:47;;;;;;;24.32;10.88;;;;;;;-1.16;100.00;141994.22;1697510;84;21032;-60
2022/02/16 01:19:16;;;;;;;20.57;11.20;;;;;;;-1.16;100.00;141994.22;1697444;83;21538;-57
2022/02/16 01:21:44;;;;;;;23.27;12.30;;;;;;;-1.19;100.00;141986.78;1685239;84;21047;-59
2022/02/16 01:24:11;;;;;;;18.80;10.18;;;;;;;-1.19;100.00;141986.78;1693826;84;21549;-58
2022/02/16 01:26:38;;;;;;;22.82;11.33;;;;;;;-1.18;100.00;141989.25;1700310;84;21040;-60
2022/02/16 01:29:07;;;;;;;22.37;11.75;;;;;;;-1.17;100.00;141991.77;1700489;84;21036;-60
2022/02/16 01:31:36;;;;;;;20.40;11.78;;;;;;;-1.18;100.00;141989.25;1700346;84;21087;-59
2022/02/16 01:34:03;;;;;;;21.82;12.95;;;;;;;-1.21;100.00;141981.81;1700586;84;21040;-58
2022/02/16 01:36:32;;;;;;;22.48;12.85;;;;;;;-1.19;100.00;141986.78;1700432;84;21048;-61
2022/02/16 01:38:59;;;;;;;23.18;11.28;;;;;;;-1.20;100.00;141984.28;1700333;84;21064;-57
2022/02/16 01:41:28;;;;;;;22.87;12.05;;;;;;;-1.19;100.00;141985.56;1699932;84;21092;-58
2022/02/16 01:44:04;;;;;;;24.27;12.20;;;;;;;-1.16;100.00;141993.00;1700307;83;21045;-59
2022/02/16 01:46:33;;;;;;;22.52;11.63;;;;;;;-1.16;100.00;141994.22;1700637;84;21028;-56
2022/02/16 01:49:01;;;;;;;20.08;10.63;;;;;;;-1.14;100.00;141999.20;1700439;83;21032;-58
2022/02/16 01:51:30;;;;;;;21.30;11.60;;;;;;;-1.10;100.00;142007.87;1700088;84;21525;-60
2022/02/16 01:53:56;;;;;;;23.87;12.28;;;;;;;-1.05;100.00;142020.28;1700590;84;21020;-57
2022/02/16 01:56:23;;;;;;;22.70;12.43;;;;;;;-1.05;100.00;142020.28;1700303;84;21180;-58
2022/02/16 01:58:51;;;;;;;21.30;12.25;;;;;;;-1.04;100.00;142021.53;1700552;83;21579;-58
2022/02/16 02:01:38;;;;;;;21.90;11.90;;;;;;;-1.04;100.00;142022.81;1700322;84;21004;-57
2022/02/16 02:04:07;;;;;;;21.50;12.20;;;;;;;-1.04;100.00;142022.81;1700918;84;21093;-57
2022/02/16 02:06:34;;;;;;;20.25;11.33;;;;;;;-1.02;100.00;142026.50;1700672;84;21310;-56
2022/02/16 02:09:03;;;;;;;19.67;11.10;;;;;;;-1.01;100.00;142029.02;1700683;83;21044;-57
2022/02/16 02:11:29;;;;;;;23.87;12.98;;;;;;;-1.02;100.00;142026.50;1700412;84;21009;-58
2022/02/16 02:14:02;;;;;;;23.10;11.83;;;;;;;-1.01;100.00;142029.02;1699367;84;21096;-58
2022/02/16 02:16:32;;;;;;;21.20;12.58;;;;;;;-0.97;100.00;142038.92;1698919;84;21570;-60
2022/02/16 02:19:01;;;;;;;20.75;12.00;;;;;;;-0.96;100.00;142041.44;1701700;83;21549;-57
2022/02/16 02:21:28;;;;;;;24.15;12.35;;;;;;;-0.93;100.00;142050.11;1715722;82;21048;-58
2022/02/16 02:23:57;;;;;;;26.62;12.50;;;;;;;-0.92;100.00;142052.56;1706205;83;21063;-58
2022/02/16 02:26:25;;;;;;;28.90;14.83;;;;;;;-0.92;100.00;142051.34;1715913;82;21497;-60
2022/02/16 02:28:53;;;;;;;26.33;14.58;;;;;;;-0.91;100.00;142053.84;1706178;84;21019;-58
2022/02/16 02:31:36;;;;;;;26.55;12.98;;;;;;;-0.92;100.00;142051.34;1716027;82;21533;-57
2022/02/16 02:34:05;;;;;;;29.18;16.07;;;;;;;-0.87;100.00;142063.75;1706293;84;21489;-57
2022/02/16 02:36:32;;;;;;;27.70;14.25;;;;;;;-0.86;100.00;142066.27;1715882;84;21031;-59
2022/02/16 02:38:59;;;;;;;27.58;14.15;;;;;;;-0.83;100.00;142072.47;1706202;84;21552;-59
2022/02/16 02:41:26;;;;;;;26.93;14.87;;;;;;;-0.82;100.00;142076.17;1715855;83;21031;-59
2022/02/16 02:43:54;;;;;;;31.30;15.58;;;;;;;-0.80;100.00;142081.16;1706225;84;21027;-60
2022/02/16 02:46:21;;;;;;;31.70;16.45;;;;;;;-0.76;100.00;142091.11;1716007;84;21517;-61
2022/02/16 02:48:50;;;;;;;26.82;15.90;;;;;;;-0.76;100.00;142089.87;1705941;83;21570;-60
2022/02/16 02:51:19;;;;;;;29.55;15.88;;;;;;;-0.72;100.00;142099.78;1715882;82;21074;-59
2022/02/16 02:53:47;;;;;;;29.12;15.45;;;;;;;-0.67;100.00;142113.44;1706028;84;21557;-59
2022/02/16 02:56:15;;;;;;;33.20;17.70;;;;;;;-0.63;100.00;142122.16;1715658;82;21076;-58
2022/02/16 02:58:42;;;;;;;37.35;18.27;;;;;;;-0.61;100.00;142125.86;1706034;83;21518;-59
2022/02/16 03:01:09;;;;;;;33.90;19.80;;;;;;;-0.60;100.00;142128.38;1715616;82;21047;-61
2022/02/16 03:03:38;;;;;;;35.65;18.50;;;;;;;-0.63;100.00;142122.16;1705898;83;21067;-59
2022/02/16 03:06:12;;;;;;;39.73;18.62;;;;;;;-0.62;100.00;142123.39;1715762;83;21514;-59
2022/02/16 03:08:40;;;;;;;31.90;17.92;;;;;;;-0.66;100.00;142115.95;1705991;84;21119;-58
2022/02/16 03:11:07;;;;;;;29.32;15.68;;;;;;;-0.69;100.00;142108.50;1715871;82;21023;-60
2022/02/16 03:13:34;;;;;;;32.85;15.88;;;;;;;-0.72;100.00;142099.78;1706187;84;21019;-60
2022/02/16 03:16:11;;;;;;;31.40;14.80;;;;;;;-0.79;100.00;142083.66;1706231;82;21027;-60
2022/02/16 03:18:39;;;;;;;33.45;16.90;;;;;;;-0.83;100.00;142073.72;1706296;83;21027;-59
2022/02/16 03:21:06;;;;;;;36.95;18.42;;;;;;;-0.84;100.00;142071.25;1705429;83;21177;-58
2022/02/16 03:23:33;;;;;;;29.77;17.37;;;;;;;-0.83;100.00;142073.72;1700624;84;21133;-60
2022/02/16 03:26:00;;;;;;;28.85;15.18;;;;;;;-0.78;100.00;142084.91;1700411;84;21068;-57
2022/02/16 03:28:29;;;;;;;34.23;16.30;;;;;;;-0.73;100.00;142098.55;1700459;84;21048;-57
2022/02/16 03:31:16;;;;;;;29.87;16.82;;;;;;;-0.72;100.00;142101.02;1700635;84;21036;-59
2022/02/16 03:33:45;;;;;;;28.95;15.32;;;;;;;-0.66;100.00;142115.95;1700625;84;21161;-59
2022/02/16 03:36:13;;;;;;;23.45;15.65;;;;;;;-0.60;100.00;142128.38;1700588;84;21514;-60
2022/02/16 03:38:40;;;;;;;29.42;16.23;;;;;;;-0.59;100.00;142130.84;1700613;84;21012;-58
2022/02/16 03:41:08;;;;;;;30.25;16.52;;;;;;;-0.58;100.00;142133.34;1700638;83;21490;-57
2022/02/16 03:43:35;;;;;;;30.05;16.05;;;;;;;-0.57;100.00;142135.81;1700661;84;21526;-60
2022/02/16 03:46:02;;;;;;;35.20;17.67;;;;;;;-0.57;100.00;142137.05;1670730;84;21526;-59
2022/02/16 03:48:31;;;;;;;31.07;15.32;;;;;;;-0.56;100.00;142138.28;1700476;84;21185;-60
2022/02/16 03:50:59;;;;;;;33.73;17.20;;;;;;;-0.56;100.00;142138.28;1700600;84;21000;-58
2022/02/16 03:53:26;;;;;;;40.25;17.65;;;;;;;-0.57;100.00;142135.81;1700535;83;21032;-58
2022/02/16 03:55:54;;;;;;;33.18;16.97;;;;;;;-0.54;100.00;142144.50;1700706;84;21087;-60
2022/02/16 03:58:21;;;;;;;33.33;18.02;;;;;;;-0.54;100.00;142143.27;1700404;84;21048;-59
2022/02/16 04:00:48;;;;;;;33.48;18.65;;;;;;;-0.55;100.00;142140.80;1700662;83;21059;-60
2022/02/16 04:03:15;;;;;;;33.90;17.50;;;;;;;-0.53;100.00;142145.77;1700693;83;21506;-60
2022/02/16 04:05:42;;;;;;;33.38;18.23;;;;;;;-0.55;100.00;142140.80;1700658;84;21079;-57
2022/02/16 04:08:10;;;;;;;33.18;17.60;;;;;;;-0.53;100.00;142145.77;1700384;83;21017;-59
2022/02/16 04:10:38;;;;;;;33.30;17.15;;;;;;;-0.48;100.00;142159.44;1700590;84;21044;-58
2022/02/16 04:13:06;;;;;;;29.40;16.45;;;;;;;-0.42;100.00;142171.84;1700393;84;21051;-60
2022/02/16 04:15:36;;;;;;;28.23;16.50;;;;;;;-0.39;100.00;142180.53;1700605;84;21012;-60
2022/02/16 04:18:05;;;;;;;29.52;15.80;;;;;;;-0.35;100.00;142190.50;1700683;84;21514;-61
2022/02/16 04:20:33;;;;;;;30.00;16.40;;;;;;;-0.29;100.00;142205.38;1700348;83;21060;-61
2022/02/16 04:23:00;;;;;;;32.55;16.30;;;;;;;-0.24;100.00;142217.81;1700687;83;21070;-59
2022/02/16 04:25:27;;;;;;;30.32;17.23;;;;;;;-0.24;100.00;142217.81;1700351;84;21103;-58
2022/02/16 04:27:55;;;;;;;42.50;16.20;;;;;;;-0.23;100.00;142219.03;1700340;84;21037;-60
2022/02/16 04:30:23;;;;;;;33.85;15.80;;;;;;;-0.24;100.00;142217.81;1700379;84;21013;-58
2022/02/16 04:32:50;;;;;;;26.30;16.97;;;;;;;-0.23;100.00;142220.33;1700667;84;20988;-59
2022/02/16 04:35:17;;;;;;;27.73;16.05;;;;;;;-0.18;100.00;142230.23;1700571;83;21526;-59
2022/02/16 04:37:44;;;;;;;29.52;15.03;;;;;;;-0.19;100.00;142229.00;1700360;83;21005;-58
2022/02/16 04:40:12;;;;;;;30.40;16.82;;;;;;;-0.15;100.00;142238.97;1700585;83;21546;-58
2022/02/16 04:42:39;;;;;;;30.90;16.37;;;;;;;-0.07;100.00;142257.59;1700331;84;21494;-60
2022/02/16 04:45:08;;;;;;;30.45;15.75;;;;;;;0.05;100.00;142287.44;1700456;84;21069;-57
2022/02/16 04:47:35;;;;;;;25.10;14.87;;;;;;;0.13;100.00;142306.09;1700607;84;21064;-60
2022/02/16 04:50:04;;;;;;;25.60;14.43;;;;;;;0.19;100.00;142322.22;1700407;84;21044;-60
2022/02/16 04:52:35;;;;;;;30.95;16.20;;;;;;;0.20;100.00;142324.73;1700317;84;21526;-60
2022/02/16 04:55:12;;;;;;;31.50;15.93;;;;;;;0.16;100.00;142313.53;1700046;84;21506;-61
2022/02/16 04:57:39;;;;;;;29.23;14.75;;;;;;;0.10;100.00;142298.59;1700586;84;21016;-60
2022/02/16 05:00:09;;;;;;;30.60;14.85;;;;;;;0.05;100.00;142287.44;1700596;84;21016;-58
2022/02/16 05:02:38;;;;;;;29.82;15.80;;;;;;;0.09;100.00;142296.13;1700519;84;21526;-57
2022/02/16 05:05:07;;;;;;;31.23;16.32;;;;;;;0.15;100.00;142312.30;1700540;84;21004;-59
2022/02/16 05:07:35;;;;;;;31.17;15.53;;;;;;;0.18;100.00;142319.75;1700501;83;20988;-59
2022/02/16 05:10:04;;;;;;;27.32;16.57;;;;;;;0.18;100.00;142319.75;1670451;84;21044;-59
2022/02/16 05:12:35;;;;;;;31.33;15.28;;;;;;;0.26;100.00;142338.39;1700474;84;21104;-61
2022/02/16 05:15:05;;;;;;;28.32;16.23;;;;;;;0.41;100.00;142374.47;1700692;83;21530;-60
2022/02/16 05:17:32;;;;;;;34.30;16.93;;;;;;;0.49;100.00;142394.34;1693414;84;21040;-57
2022/02/16 05:20:00;;;;;;;29.52;16.77;;;;;;;0.59;100.00;142417.98;1701860;83;21067;-59
2022/02/16 05:22:27;;;;;;;26.35;15.25;;;;;;;0.67;100.00;142436.64;1715877;82;21501;-59
2022/02/16 05:24:54;;;;;;;30.23;14.85;;;;;;;0.73;100.00;142451.53;1706020;83;21036;-57
2022/02/16 05:27:21;;;;;;;30.95;15.75;;;;;;;0.77;100.00;142461.52;1715533;84;21031;-58
2022/02/16 05:29:47;;;;;;;25.77;14.63;;;;;;;0.69;99.63;142442.86;1706045;84;21032;-61
2022/02/16 05:32:14;;;;;;;27.25;15.70;;;;;;;0.60;99.87;142421.69;1715732;82;21015;-57
2022/02/16 05:34:42;;;;;;;31.20;15.38;;;;;;;0.54;100.00;142405.55;1705942;84;21039;-59
2022/02/16 05:37:09;;;;;;;31.80;15.70;;;;;;;0.56;100.00;142411.77;1715542;82;21024;-59
2022/02/16 05:39:37;;;;;;;30.72;14.58;;;;;;;0.56;100.00;142411.77;1706131;84;22069;-59
2022/02/16 05:42:07;;;;;;;26.10;14.15;;;;;;;0.56;100.00;142411.77;1715923;82;21027;-60
2022/02/16 05:44:34;;;;;;;28.17;15.30;;;;;;;0.49;100.00;142394.34;1684841;84;21027;-59
2022/02/16 05:47:01;;;;;;;30.20;15.93;;;;;;;0.44;100.00;142381.91;1706229;84;21059;-61
2022/02/16 05:49:28;;;;;;;31.25;15.72;;;;;;;0.37;100.00;142364.50;1715898;82;21015;-60
2022/02/16 05:51:55;;;;;;;33.38;16.48;;;;;;;0.31;100.00;142350.83;1705969;84;21087;-60
2022/02/16 05:54:22;;;;;;;30.05;15.58;;;;;;;0.32;100.00;142352.06;1715845;82;21063;-60
2022/02/16 05:56:49;;;;;;;30.25;16.07;;;;;;;0.34;100.00;142358.28;1706297;84;21020;-57
2022/02/16 05:59:17;;;;;;;28.30;14.90;;;;;;;0.37;100.00;142364.50;1715710;82;21047;-57
2022/02/16 06:01:46;;;;;;;32.33;16.07;;;;;;;0.43;100.00;142379.41;1706333;83;21012;-59
2022/02/16 06:04:16;;;;;;;30.12;14.87;;;;;;;0.42;100.00;142376.94;1715720;82;21521;-57
2022/02/16 06:06:44;;;;;;;29.40;15.10;;;;;;;0.43;100.00;142379.41;1706096;84;21537;-60
2022/02/16 06:09:12;;;;;;;29.40;15.83;;;;;;;0.51;100.00;142399.33;1715882;82;21133;-58
2022/02/16 06:11:40;;;;;;;28.80;16.00;;;;;;;0.59;100.00;142417.98;1705947;83;21083;-60
2022/02/16 06:14:08;;;;;;;31.65;14.93;;;;;;;0.73;100.00;142451.53;1686748;85;21091;-59
2022/02/16 06:16:36;;;;;;;38.53;16.75;;;;;;;0.87;100.00;142486.39;1706089;84;21577;-60
2022/02/16 06:19:03;;;;;;;27.58;15.45;;;;;;;0.82;100.00;142473.95;1715854;82;21027;-60
2022/02/16 06:21:30;;;;;;;25.82;14.45;;;;;;;0.80;100.00;142470.19;1718187;83;21053;-61
2022/02/16 06:23:58;;;;;;;29.75;15.88;;;;;;;0.84;100.00;142478.89;1726198;82;21163;-57
2022/02/16 06:26:25;;;;;;;29.65;15.43;;;;;;;0.86;100.00;142483.88;1697411;83;21524;-59
2022/02/16 06:28:52;;;;;;;34.15;16.02;;;;;;;0.88;100.00;142488.86;1697224;83;21014;-60
2022/02/16 06:31:22;;;;;;;31.82;17.45;;;;;;;0.96;100.00;142508.75;1671497;84;21050;-57
2022/02/16 06:33:49;;;;;;;31.15;16.02;;;;;;;1.03;100.00;142524.94;1725661;83;21063;-60
2022/02/16 06:36:16;;;;;;;33.67;16.80;;;;;;;1.10;100.00;142541.12;1697250;83;21050;-58
2022/02/16 06:38:43;;;;;;;35.05;16.15;;;;;;;1.02;100.00;142522.47;1697448;83;21035;-61
2022/02/16 06:41:11;;;;;;;27.77;15.32;;;;;;;0.97;100.00;142511.27;1696105;83;21063;-58
2022/02/16 06:43:38;;;;;;;27.10;15.18;;;;;;;1.03;100.00;142526.17;1726175;82;21121;-57
2022/02/16 06:46:05;;;;;;;27.48;15.38;;;;;;;1.07;100.00;142536.16;1726166;82;21042;-60
2022/02/16 06:48:33;;;;;;;30.72;16.02;;;;;;;1.08;100.00;142538.62;1726488;82;21019;-60
2022/02/16 06:51:00;;;;;;;27.62;15.68;;;;;;;1.02;100.00;142522.47;1726354;83;21004;-61
2022/02/16 06:53:27;;;;;;;23.27;13.93;;;;;;;0.94;100.00;142502.53;1726146;82;21083;-57
2022/02/16 06:55:54;;;;;;;30.15;15.98;;;;;;;0.96;100.00;142508.75;1726496;82;21027;-60
2022/02/16 06:58:22;;;;;;;26.23;14.47;;;;;;;1.00;100.00;142518.72;1722162;82;21082;-59
2022/02/16 07:00:50;;;;;;;28.75;15.38;;;;;;;1.07;100.00;142536.16;1726148;82;21074;-60
2022/02/16 07:03:18;;;;;;;24.63;14.70;;;;;;;1.10;100.00;142541.12;1726141;83;21114;-60
2022/02/16 07:05:58;;;;;;;26.10;15.20;;;;;;;1.13;100.00;142549.81;1724919;82;21066;-60
2022/02/16 07:08:26;;;;;;;31.93;17.40;;;;;;;1.11;100.00;142543.59;1726475;82;20995;-59
2022/02/16 07:10:53;;;;;;;32.93;18.67;;;;;;;1.08;100.00;142538.62;1726298;82;21497;-59
2022/02/16 07:13:21;;;;;;;31.48;17.07;;;;;;;1.15;100.00;142553.58;1726340;82;21073;-58
2022/02/16 07:15:51;;;;;;;36.58;17.60;;;;;;;1.23;100.00;142574.70;1726399;82;21567;-59
2022/02/16 07:18:18;;;;;;;31.33;16.48;;;;;;;1.29;99.97;142588.39;1726151;82;21058;-59
2022/02/16 07:20:50;;;;;;;30.23;16.25;;;;;;;1.19;99.76;142563.50;1726182;82;21094;-60
2022/02/16 07:23:18;;;;;;;28.30;14.93;;;;;;;1.06;100.00;142532.39;1697220;83;21030;-57
2022/02/16 07:25:46;;;;;;;28.52;15.48;;;;;;;1.04;100.00;142528.69;1697521;83;21524;-57
2022/02/16 07:28:15;;;;;;;29.75;16.15;;;;;;;0.98;100.00;142513.73;1697324;83;21521;-60
2022/02/16 07:30:45;;;;;;;29.92;15.25;;;;;;;0.91;100.00;142495.08;1726435;82;20999;-56
2022/02/16 07:33:13;;;;;;;29.82;15.60;;;;;;;0.78;100.00;142463.97;1697391;83;21586;-58
2022/02/16 07:35:39;;;;;;;29.27;15.03;;;;;;;0.61;100.00;142424.20;1697412;83;21042;-57
2022/02/16 07:38:07;;;;;;;31.75;16.30;;;;;;;0.51;100.00;142398.05;1695745;83;21047;-61
2022/02/16 07:40:35;;;;;;;31.82;15.72;;;;;;;0.46;100.00;142385.61;1726331;82;21078;-59
2022/02/16 07:43:03;;;;;;;36.73;17.07;;;;;;;0.47;100.00;142389.36;1726439;82;21191;-59
2022/02/16 07:45:49;;;;;;;34.53;17.42;;;;;;;0.50;100.00;142396.81;1634408;86;21538;-57
2022/02/16 07:48:16;;;;;;;29.37;16.23;;;;;;;0.67;100.00;142436.64;1666377;85;21532;-60
2022/02/16 07:50:43;;;;;;;31.93;16.30;;;;;;;0.67;100.00;142436.64;1666495;84;21083;-60
2022/02/16 07:53:11;;;;;;;32.58;16.37;;;;;;;0.59;100.00;142419.22;1726093;82;21038;-60
2022/02/16 07:55:43;;;;;;;28.98;14.85;;;;;;;0.60;100.00;142420.45;1725679;82;21505;-58
2022/02/16 07:58:11;;;;;;;28.90;16.37;;;;;;;0.68;100.00;142440.34;1726129;82;21027;-58
2022/02/16 08:00:39;;;;;;;33.73;17.52;;;;;;;0.73;100.00;142452.78;1726350;82;21030;-58
2022/02/16 08:03:08;;;;;;;35.73;20.12;;;;;;;0.91;100.00;142495.08;1724502;82;21070;-59
2022/02/16 08:05:36;;;;;;;36.50;18.10;;;;;;;1.10;100.00;142541.12;1726426;82;21023;-60
2022/02/16 08:08:05;;;;;;;34.20;19.90;;;;;;;1.26;100.00;142580.92;1726347;82;21027;-58
2022/02/16 08:10:33;;;;;;;31.57;18.12;;;;;;;1.36;100.00;142604.58;1726330;82;21031;-60
2022/02/16 08:13:00;;;;;;;40.30;20.00;;;;;;;1.35;99.95;142603.34;1726052;82;21054;-60
2022/02/16 08:15:48;;;;;;;36.85;18.80;;;;;;;1.27;100.00;142583.41;1725694;82;21094;-57
2022/02/16 08:18:15;;;;;;;36.35;17.75;;;;;;;1.25;100.00;142579.69;1726165;82;21055;-58
2022/02/16 08:20:42;;;;;;;29.60;16.50;;;;;;;1.20;99.81;142566.02;1725944;82;21139;-60
2022/02/16 08:23:14;;;;;;;;;;;;;;;1.20;99.86;142566.02;1719259;82;21038;-58
2022/02/16 08:25:41;;;;;;;35.25;17.10;;;;;;;1.29;100.00;142588.39;1697440;83;20127;-59
2022/02/16 08:28:12;;;;;;;35.65;17.87;;;;;;;1.33;99.42;142598.36;1694129;83;21044;-60
2022/02/16 08:30:39;;;;;;;33.00;17.75;;;;;;;1.35;99.41;142603.34;1697292;83;21034;-58
2022/02/16 08:33:12;;;;;;;33.53;20.12;;;;;;;1.32;99.26;142595.84;1725956;82;21035;-58
2022/02/16 08:35:40;;;;;;;38.13;19.12;;;;;;;1.32;99.21;142595.84;1697300;83;21035;-59
2022/02/16 08:38:07;;;;;;;36.13;20.10;;;;;;;1.43;99.56;142623.25;1697225;84;21015;-58
2022/02/16 08:40:34;;;;;;;38.28;19.45;;;;;;;1.58;99.00;142658.06;1695640;83;21050;-58
2022/02/16 08:43:01;;;;;;;42.30;21.87;;;;;;;1.66;98.52;142678.03;1726285;82;21012;-63
2022/02/16 08:45:28;;;;;;;38.42;20.72;;;;;;;1.68;98.45;142684.25;1726092;82;21074;-58
2022/02/16 08:47:54;;;;;;;41.90;21.95;;;;;;;1.83;98.43;142720.36;1726188;82;21497;-60
2022/02/16 08:50:21;;;;;;;41.30;21.45;;;;;;;1.81;96.86;142715.38;1726008;82;21513;-57
2022/02/16 08:52:49;;;;;;;41.60;20.72;;;;;;;1.80;97.36;142712.84;1725902;82;21154;-60
2022/02/16 08:55:16;;;;;;;35.73;19.45;;;;;;;1.94;97.44;142747.72;1726062;82;21035;-57
2022/02/16 08:57:43;;;;;;;38.75;22.05;;;;;;;2.01;96.87;142763.94;1726172;82;21027;-58
2022/02/16 09:00:11;;;;;;;40.63;21.60;;;;;;;2.06;96.31;142775.09;1726479;83;21058;-59
2022/02/16 09:02:39;;;;;;;39.53;21.12;;;;;;;2.15;96.36;142797.53;1726089;83;21501;-59
2022/02/16 09:05:07;;;;;;;37.50;20.50;;;;;;;2.26;95.99;142824.91;1726161;82;21537;-61
2022/02/16 09:07:36;;;;;;;41.20;22.90;;;;;;;2.29;95.26;142832.42;1726119;82;21048;-59
2022/02/16 09:10:08;;;;;;;43.78;23.22;;;;;;;2.21;95.17;142812.45;1697223;83;22209;-60
2022/02/16 09:12:37;;;;;;;46.70;25.57;;;;;;;2.28;95.34;142829.91;1697303;83;21493;-59
2022/02/16 09:15:06;;;;;;;46.50;26.27;;;;;;;2.41;95.03;142861.05;1726068;82;21070;-58
2022/02/16 09:17:34;;;;;;;50.20;26.25;;;;;;;2.53;94.35;142889.72;1726349;82;21054;-60
2022/02/16 09:20:04;;;;;;;46.15;24.98;;;;;;;2.55;93.37;142894.70;1726150;82;21548;-59
2022/02/16 09:22:34;;;;;;;38.55;22.40;;;;;;;2.53;93.61;142889.72;1726038;82;21500;-59
2022/02/16 09:25:01;;;;;;;42.80;24.05;;;;;;;2.62;93.28;142912.16;1726352;82;21031;-58
2022/02/16 09:27:27;;;;;;;44.48;22.80;;;;;;;2.65;92.74;142919.63;1726335;82;21019;-59
2022/02/16 09:29:54;;;;;;;43.92;24.77;;;;;;;2.64;92.33;142915.86;1726118;82;21035;-58
2022/02/16 09:32:22;;;;;;;42.90;22.52;;;;;;;2.51;92.00;142884.72;1726049;82;21063;-58
2022/02/16 09:34:51;;;;;;;45.78;24.50;;;;;;;2.32;91.97;142839.88;1726301;82;21055;-57
2022/02/16 09:37:18;;;;;;;46.88;24.77;;;;;;;2.09;92.76;142782.61;1726461;82;21015;-60
2022/02/16 09:39:45;;;;;;;50.52;25.72;;;;;;;2.14;93.40;142796.30;1726291;83;21065;-59
2022/02/16 09:42:12;;;;;;;48.75;25.52;;;;;;;2.27;93.51;142826.19;1726306;82;21075;-61
2022/02/16 09:45:05;;;;;;;46.20;25.92;;;;;;;2.44;93.39;142867.27;1726076;83;21011;-60
2022/02/16 09:47:34;;;;;;;42.00;25.02;;;;;;;2.58;93.16;142903.41;1726310;82;21086;-59
2022/02/16 09:50:04;;;;;;;46.92;25.30;;;;;;;2.71;92.65;142934.55;1726305;82;21019;-60
2022/02/16 09:52:31;;;;;;;47.27;25.17;;;;;;;2.79;91.92;142954.47;1697374;83;21063;-58
2022/02/16 09:54:58;;;;;;;39.03;22.62;;;;;;;2.73;91.38;142939.55;1697417;83;21027;-60
2022/02/16 09:57:24;;;;;;;43.95;24.02;;;;;;;2.77;91.43;142949.53;1697377;83;21062;-60
2022/02/16 09:59:51;;;;;;;40.38;22.87;;;;;;;2.85;91.04;142966.94;1697354;83;21031;-60
2022/02/16 10:02:19;;;;;;;48.35;25.45;;;;;;;2.92;91.04;142984.39;1726127;82;21066;-57
2022/02/16 10:04:59;;;;;;;45.43;26.60;;;;;;;3.02;90.74;143010.55;1697145;83;21050;-58
2022/02/16 10:07:34;;;;;;;50.45;27.52;;;;;;;3.10;90.43;143028.00;1697314;83;21058;-61
2022/02/16 10:10:24;;;;;;;46.00;26.30;;;;;;;3.11;90.09;143031.77;1695890;83;21047;-61
2022/02/16 10:12:55;;;;;;;45.25;25.35;;;;;;;2.94;89.62;142989.38;1726252;82;21070;-60
2022/02/16 10:15:32;;;;;;;44.48;25.32;;;;;;;2.86;90.16;142969.45;1726247;83;21015;-59
2022/02/16 10:18:12;;;;;;;43.28;25.00;;;;;;;2.77;90.33;142949.53;1725035;82;21524;-60
2022/02/16 10:20:39;;;;;;;38.50;23.30;;;;;;;2.81;90.47;142959.47;1726113;82;21043;-60
2022/02/16 10:23:07;;;;;;;41.10;24.40;;;;;;;2.90;90.20;142979.41;1726082;83;21588;-60
2022/02/16 10:25:36;;;;;;;42.13;24.87;;;;;;;2.96;89.79;142994.38;1726281;82;21469;-60
2022/02/16 10:28:15;;;;;;;44.85;25.17;;;;;;;2.98;89.64;143000.61;1726517;82;21019;-59
2022/02/16 10:31:06;;;;;;;51.58;28.25;;;;;;;3.02;89.47;143009.31;1726414;82;21508;-60
2022/02/16 10:33:41;;;;;;;49.80;28.23;;;;;;;3.06;89.42;143019.30;1726415;82;21055;-57
2022/02/16 10:36:13;;;;;;;48.10;27.32;;;;;;;3.11;89.39;143031.77;1726528;82;21022;-59
2022/02/16 10:39:06;;;;;;;50.43;27.62;;;;;;;3.18;89.18;143049.22;1726470;82;21023;-58
2022/02/16 10:41:53;;;;;;;48.58;27.52;;;;;;;3.20;89.00;143054.17;1726521;82;21066;-60
2022/02/16 10:44:27;;;;;;;47.60;26.68;;;;;;;3.02;88.93;143010.55;1726524;83;21072;-60
2022/02/16 10:47:11;;;;;;;47.10;25.90;;;;;;;2.96;89.38;142995.61;1726435;82;21023;-58
2022/02/16 10:49:47;;;;;;;49.65;24.07;;;;;;;3.05;89.42;143016.78;1726454;82;21030;-58
2022/02/16 10:52:18;;;;;;;37.98;23.80;;;;;;;3.12;89.30;143034.25;1726383;82;21528;-58
2022/02/16 10:54:57;;;;;;;38.95;23.52;;;;;;;3.17;89.07;143045.47;1726532;82;21090;-61
2022/02/16 10:57:28;;;;;;;40.23;24.25;;;;;;;3.25;89.09;143066.64;1726344;82;21552;-60
2022/02/16 10:59:57;;;;;;;43.98;25.25;;;;;;;3.12;88.38;143034.25;1726591;82;20999;-59
2022/02/16 11:02:25;;;;;;;46.37;25.97;;;;;;;2.70;89.66;142930.84;1726434;83;21549;-58
2022/02/16 11:04:54;;;;;;;48.20;25.62;;;;;;;2.55;90.63;142895.94;1726428;82;21031;-61
2022/02/16 11:07:24;;;;;;;44.10;24.77;;;;;;;2.65;91.01;142919.63;1726423;82;21066;-60
2022/02/16 11:09:58;;;;;;;40.30;23.87;;;;;;;2.79;90.89;142954.47;1726388;82;21019;-58
2022/02/16 11:12:24;;;;;;;45.33;26.07;;;;;;;2.93;90.54;142986.91;1726397;82;21489;-59
2022/02/16 11:14:53;;;;;;;50.10;27.25;;;;;;;3.01;90.25;143006.84;1726209;82;21042;-59
2022/02/16 11:17:24;;;;;;;57.80;29.72;;;;;;;3.09;90.01;143026.78;1726365;82;21532;-59